Time,TemperatureF,DewpointF,PressureIn,WindDirection,WindDirectionDegrees,WindSpeedMPH,WindSpeedGustMPH,Humidity,HourlyPrecipIn,Conditions,Clouds,dailyrainin,SoftwareType,DateUTC
2013-07-04 00:02:00,60.0,41.0,29.26,SW,229,0.0,3.0,49,0.00,,,0.01,,2013-07-04 08:02:00,
2013-07-04 00:11:00,60.0,41.0,29.26,SW,229,0.0,3.0,49,0.00,,,0.01,,2013-07-04 08:11:00,
2013-07-04 00:21:00,59.0,40.0,29.26,SW,229,0.0,3.0,50,0.00,,,0.01,,2013-07-04 08:21:00,
2013-07-04 00:33:00,58.0,40.0,29.26,SW,229,0.0,0.0,52,0.00,,,0.01,,2013-07-04 08:33:00,
2013-07-04 00:42:00,58.0,40.0,29.26,SW,229,0.0,0.0,52,0.00,,,0.01,,2013-07-04 08:42:00,
2013-07-04 00:53:00,58.0,40.0,29.26,SW,229,0.0,0.0,52,0.00,,,0.01,,2013-07-04 08:53:00,
2013-07-04 01:02:00,58.0,40.0,29.26,SW,229,0.0,0.0,52,0.00,,,0.01,,2013-07-04 09:02:00,
2013-07-04 01:11:00,58.0,40.0,29.26,SW,229,0.0,0.0,52,0.00,,,0.01,,2013-07-04 09:11:00,
2013-07-04 01:22:00,57.0,39.0,29.26,SW,229,0.0,0.0,51,0.00,,,0.01,,2013-07-04 09:22:00,
2013-07-04 01:32:00,57.0,41.0,29.26,SW,229,0.0,0.0,55,0.00,,,0.01,,2013-07-04 09:32:00,
2013-07-04 01:42:00,57.0,41.0,29.26,SW,229,0.0,0.0,55,0.00,,,0.01,,2013-07-04 09:42:00,
2013-07-04 01:52:00,57.0,42.0,29.27,SW,229,0.0,0.0,57,0.00,,,0.01,,2013-07-04 09:52:00,
2013-07-04 02:01:00,56.0,41.0,29.27,WSW,247,0.0,1.0,57,0.00,,,0.01,,2013-07-04 10:01:00,
2013-07-04 02:11:00,56.0,41.0,29.27,WSW,247,0.0,1.0,57,0.00,,,0.01,,2013-07-04 10:11:00,
2013-07-04 02:22:00,54.0,40.0,29.27,WSW,247,0.0,1.0,58,0.00,,,0.01,,2013-07-04 10:22:00,
2013-07-04 02:33:00,53.0,39.0,29.27,WSW,247,0.0,1.0,60,0.00,,,0.01,,2013-07-04 10:33:00,
2013-07-04 02:42:00,53.0,39.0,29.27,WSW,247,0.0,1.0,60,0.00,,,0.01,,2013-07-04 10:42:00,
2013-07-04 02:53:00,53.0,40.0,29.27,WSW,247,0.0,1.0,61,0.00,,,0.01,,2013-07-04 10:53:00,
2013-07-04 03:02:00,54.0,40.0,29.27,WSW,247,0.0,1.0,60,0.00,,,0.01,,2013-07-04 11:02:00,
2013-07-04 03:11:00,54.0,40.0,29.27,WSW,247,0.0,1.0,60,0.00,,,0.01,,2013-07-04 11:11:00,
2013-07-04 03:22:00,54.0,40.0,29.27,WSW,247,0.0,1.0,60,0.00,,,0.01,,2013-07-04 11:22:00,
2013-07-04 03:33:00,54.0,40.0,29.27,WSW,247,0.0,1.0,60,0.00,,,0.01,,2013-07-04 11:33:00,
2013-07-04 03:43:00,54.0,40.0,29.27,WSW,247,0.0,1.0,60,0.00,,,0.01,,2013-07-04 11:43:00,
2013-07-04 03:53:00,53.0,40.0,29.27,WSW,247,0.0,1.0,61,0.00,,,0.01,,2013-07-04 11:53:00,
2013-07-04 04:01:00,52.0,39.0,29.27,WSW,247,0.0,1.0,62,0.00,,,0.01,,2013-07-04 12:01:00,
2013-07-04 04:11:00,52.0,39.0,29.27,WSW,247,0.0,1.0,62,0.00,,,0.01,,2013-07-04 12:11:00,
2013-07-04 04:22:00,52.0,40.0,29.27,WSW,247,0.0,1.0,63,0.00,,,0.01,,2013-07-04 12:22:00,
2013-07-04 04:32:00,52.0,40.0,29.27,WSW,247,0.0,1.0,63,0.00,,,0.01,,2013-07-04 12:32:00,
2013-07-04 04:43:00,51.0,40.0,29.27,WSW,247,0.0,1.0,65,0.00,,,0.01,,2013-07-04 12:43:00,
2013-07-04 04:52:00,51.0,40.0,29.27,WSW,247,0.0,1.0,66,0.00,,,0.01,,2013-07-04 12:52:00,
2013-07-04 05:11:00,50.0,39.0,29.27,WSW,247,0.0,1.0,66,0.00,,,0.01,,2013-07-04 13:11:00,
2013-07-04 05:33:00,50.0,39.0,29.27,WSW,247,0.0,1.0,67,0.00,,,0.01,,2013-07-04 13:33:00,
2013-07-04 05:43:00,50.0,40.0,29.27,WSW,247,0.0,1.0,68,0.00,,,0.01,,2013-07-04 13:43:00,
2013-07-04 06:02:00,48.0,39.0,29.27,WSW,247,0.0,1.0,71,0.00,,,0.01,,2013-07-04 14:02:00,
2013-07-04 06:11:00,48.0,39.0,29.27,WSW,247,0.0,1.0,71,0.00,,,0.01,,2013-07-04 14:11:00,
2013-07-04 06:22:00,48.0,39.0,29.27,WSW,247,0.0,1.0,71,0.00,,,0.01,,2013-07-04 14:22:00,
2013-07-04 06:33:00,48.0,39.0,29.27,WSW,247,0.0,1.0,71,0.00,,,0.01,,2013-07-04 14:33:00,
2013-07-04 06:43:00,47.0,38.0,29.26,WSW,247,0.0,1.0,71,0.00,,,0.01,,2013-07-04 14:43:00,
2013-07-04 06:53:00,48.0,39.0,29.27,WSW,247,0.0,1.0,71,0.00,,,0.01,,2013-07-04 14:53:00,
2013-07-04 07:02:00,48.0,39.0,29.27,WSW,247,0.0,1.0,71,0.00,,,0.01,,2013-07-04 15:02:00,
2013-07-04 07:11:00,48.0,39.0,29.27,WSW,247,0.0,1.0,71,0.00,,,0.01,,2013-07-04 15:11:00,
2013-07-04 07:23:00,48.0,39.0,29.27,WSW,247,0.0,1.0,71,0.00,,,0.01,,2013-07-04 15:23:00,
2013-07-04 07:33:00,49.0,41.0,29.26,WSW,247,0.0,1.0,73,0.00,,,0.01,,2013-07-04 15:33:00,
2013-07-04 07:43:00,49.0,41.0,29.26,WSW,247,0.0,1.0,73,0.00,,,0.01,,2013-07-04 15:43:00,
2013-07-04 07:52:00,49.0,41.0,29.26,WSW,247,0.0,1.0,73,0.00,,,0.01,,2013-07-04 15:52:00,
2013-07-04 08:02:00,50.0,42.0,29.27,WSW,247,0.0,1.0,73,0.00,,,0.01,,2013-07-04 16:02:00,
2013-07-04 08:11:00,50.0,42.0,29.27,WSW,247,0.0,1.0,73,0.00,,,0.01,,2013-07-04 16:11:00,
2013-07-04 08:22:00,50.0,42.0,29.27,WSW,247,0.0,1.0,73,0.00,,,0.01,,2013-07-04 16:22:00,
2013-07-04 08:33:00,51.0,42.0,29.27,WSW,247,0.0,1.0,72,0.00,,,0.01,,2013-07-04 16:33:00,
2013-07-04 08:42:00,51.0,42.0,29.27,WSW,247,0.0,1.0,72,0.00,,,0.01,,2013-07-04 16:42:00,
2013-07-04 08:52:00,51.0,42.0,29.27,WSW,247,0.0,1.0,72,0.00,,,0.01,,2013-07-04 16:52:00,
2013-07-04 09:01:00,51.0,42.0,29.27,WSW,247,0.0,1.0,72,0.00,,,0.01,,2013-07-04 17:01:00,
2013-07-04 09:11:00,52.0,43.0,29.27,WSW,247,0.0,1.0,71,0.00,,,0.01,,2013-07-04 17:11:00,
2013-07-04 09:22:00,53.0,43.0,29.27,WSW,247,0.0,1.0,69,0.00,,,0.01,,2013-07-04 17:22:00,
2013-07-04 09:33:00,55.0,43.0,29.26,WSW,247,0.0,1.0,64,0.00,,,0.01,,2013-07-04 17:33:00,
2013-07-04 09:43:00,55.0,43.0,29.26,WSW,247,0.0,1.0,64,0.00,,,0.01,,2013-07-04 17:43:00,
2013-07-04 09:53:00,57.0,44.0,29.26,WSW,247,0.0,1.0,61,0.00,,,0.01,,2013-07-04 17:53:00,
2013-07-04 10:01:00,60.0,45.0,29.26,West,278,0.0,1.0,58,0.00,,,0.01,,2013-07-04 18:01:00,
2013-07-04 10:11:00,60.0,45.0,29.26,West,278,0.0,1.0,58,0.00,,,0.01,,2013-07-04 18:11:00,
2013-07-04 10:33:00,61.0,43.0,29.26,NW,312,0.0,1.0,52,0.00,,,0.01,,2013-07-04 18:33:00,
2013-07-04 10:43:00,61.0,43.0,29.26,NW,312,0.0,1.0,52,0.00,,,0.01,,2013-07-04 18:43:00,
2013-07-04 10:52:00,62.0,43.0,29.25,NW,312,0.0,1.0,49,0.00,,,0.01,,2013-07-04 18:52:00,
2013-07-04 11:01:00,62.0,42.0,29.26,NW,312,0.0,1.0,48,0.00,,,0.01,,2013-07-04 19:01:00,
2013-07-04 11:11:00,62.0,42.0,29.26,NW,312,0.0,1.0,48,0.00,,,0.01,,2013-07-04 19:11:00,
2013-07-04 11:22:00,63.0,42.0,29.25,NW,312,0.0,1.0,46,0.00,,,0.01,,2013-07-04 19:22:00,
2013-07-04 11:33:00,63.0,42.0,29.25,NW,312,0.0,1.0,46,0.00,,,0.01,,2013-07-04 19:33:00,
2013-07-04 11:43:00,63.0,38.0,29.26,NW,312,0.0,1.0,40,0.00,,,0.01,,2013-07-04 19:43:00,
2013-07-04 11:53:00,63.0,39.0,29.25,West,262,0.0,1.0,41,0.00,,,0.01,,2013-07-04 19:53:00,
2013-07-04 12:01:00,64.0,41.0,29.25,WNW,303,0.0,1.0,43,0.00,,,0.01,,2013-07-04 20:01:00,
2013-07-04 12:11:00,64.0,41.0,29.25,WNW,303,0.0,1.0,43,0.00,,,0.01,,2013-07-04 20:11:00,
2013-07-04 12:22:00,64.0,41.0,29.25,WNW,303,0.0,1.0,43,0.00,,,0.01,,2013-07-04 20:22:00,
2013-07-04 12:33:00,65.0,41.0,29.25,WNW,303,0.0,1.0,41,0.00,,,0.01,,2013-07-04 20:33:00,
2013-07-04 12:42:00,65.0,41.0,29.25,WNW,303,0.0,1.0,41,0.00,,,0.01,,2013-07-04 20:42:00,
2013-07-04 12:53:00,65.0,38.0,29.25,WSW,256,0.0,1.0,37,0.00,,,0.01,,2013-07-04 20:53:00,
2013-07-04 13:01:00,65.0,41.0,29.25,WSW,256,0.0,1.0,42,0.00,,,0.01,,2013-07-04 21:01:00,
2013-07-04 13:11:00,65.0,41.0,29.25,WSW,256,0.0,1.0,42,0.00,,,0.01,,2013-07-04 21:11:00,
2013-07-04 13:22:00,65.0,41.0,29.25,WSW,256,0.0,1.0,42,0.00,,,0.01,,2013-07-04 21:22:00,
2013-07-04 13:32:00,63.0,41.0,29.26,West,278,0.0,1.0,45,0.00,,,0.00,,2013-07-04 21:32:00,
2013-07-04 13:42:00,63.0,41.0,29.26,West,278,0.0,1.0,45,0.00,,,0.00,,2013-07-04 21:42:00,
2013-07-04 13:53:00,65.0,42.0,29.26,WSW,249,0.0,1.0,43,0.00,,,0.00,,2013-07-04 21:53:00,
2013-07-04 14:01:00,67.0,42.0,29.26,WNW,287,0.0,1.0,40,0.00,,,0.00,,2013-07-04 22:01:00,
2013-07-04 14:11:00,67.0,42.0,29.26,WNW,287,0.0,1.0,40,0.00,,,0.00,,2013-07-04 22:11:00,
2013-07-04 14:22:00,67.0,41.0,29.26,SSW,194,0.0,1.0,39,0.00,,,0.00,,2013-07-04 22:22:00,
2013-07-04 14:33:00,67.0,43.0,29.26,SE,137,0.0,2.0,41,0.00,,,0.00,,2013-07-04 22:33:00,
2013-07-04 14:43:00,67.0,43.0,29.26,SE,137,0.0,2.0,41,0.00,,,0.00,,2013-07-04 22:43:00,
2013-07-04 14:52:00,66.0,42.0,29.26,NNE,29,0.0,2.0,42,0.00,,,0.00,,2013-07-04 22:52:00,
2013-07-04 15:01:00,65.0,40.0,29.27,WSW,237,0.0,2.0,40,0.00,,,0.00,,2013-07-04 23:01:00,
2013-07-04 15:11:00,65.0,40.0,29.27,WSW,237,0.0,2.0,40,0.00,,,0.00,,2013-07-04 23:11:00,
2013-07-04 15:23:00,65.0,40.0,29.27,WSW,237,0.0,2.0,40,0.00,,,0.00,,2013-07-04 23:23:00,
2013-07-04 15:33:00,64.0,41.0,29.27,WSW,237,0.0,2.0,43,0.00,,,0.00,,2013-07-04 23:33:00,
2013-07-04 15:42:00,64.0,41.0,29.27,WSW,237,0.0,2.0,43,0.00,,,0.00,,2013-07-04 23:42:00,
2013-07-04 15:52:00,64.0,43.0,29.27,WSW,237,0.0,2.0,46,0.00,,,0.00,,2013-07-04 23:52:00,
2013-07-04 16:01:00,64.0,44.0,29.27,WSW,237,0.0,2.0,49,0.00,,,0.00,,2013-07-05 00:01:00,
2013-07-04 16:11:00,64.0,44.0,29.27,WSW,237,0.0,2.0,49,0.00,,,0.00,,2013-07-05 00:11:00,
2013-07-04 16:32:00,64.0,43.0,29.27,WSW,237,0.0,2.0,47,0.00,,,0.00,,2013-07-05 00:32:00,
2013-07-04 16:43:00,63.0,42.0,29.27,WSW,243,0.0,2.0,46,0.00,,,0.00,,2013-07-05 00:43:00,
2013-07-04 16:52:00,64.0,42.0,29.27,NNE,18,0.0,2.0,44,0.00,,,0.00,,2013-07-05 00:52:00,
2013-07-04 17:01:00,64.0,42.0,29.27,NNE,18,0.0,2.0,44,0.00,,,0.00,,2013-07-05 01:01:00,
2013-07-04 17:11:00,64.0,42.0,29.27,NNE,18,0.0,2.0,44,0.00,,,0.00,,2013-07-05 01:11:00,
2013-07-04 17:21:00,64.0,40.0,29.27,WSW,252,0.0,2.0,41,0.00,,,0.00,,2013-07-05 01:21:00,
2013-07-04 17:32:00,64.0,40.0,29.27,WSW,252,0.0,2.0,41,0.00,,,0.00,,2013-07-05 01:32:00,
2013-07-04 17:42:00,64.0,40.0,29.27,WSW,252,0.0,2.0,41,0.00,,,0.00,,2013-07-05 01:42:00,
2013-07-04 17:52:00,64.0,40.0,29.28,West,277,0.0,4.0,41,0.00,,,0.00,,2013-07-05 01:52:00,
2013-07-04 18:02:00,64.0,40.0,29.28,West,277,0.0,4.0,41,0.00,,,0.00,,2013-07-05 02:02:00,
2013-07-04 18:11:00,64.0,40.0,29.28,West,277,0.0,4.0,41,0.00,,,0.00,,2013-07-05 02:11:00,
2013-07-04 18:21:00,63.0,40.0,29.28,WSW,253,0.0,4.0,42,0.00,,,0.00,,2013-07-05 02:21:00,
2013-07-04 18:32:00,63.0,40.0,29.28,WSW,253,0.0,4.0,42,0.00,,,0.00,,2013-07-05 02:32:00,
2013-07-04 18:42:00,63.0,40.0,29.28,WSW,253,0.0,4.0,42,0.00,,,0.00,,2013-07-05 02:42:00,
2013-07-04 18:52:00,63.0,40.0,29.28,WSW,253,0.0,4.0,42,0.00,,,0.00,,2013-07-05 02:52:00,
2013-07-04 19:02:00,63.0,40.0,29.28,WSW,253,0.0,4.0,42,0.00,,,0.00,,2013-07-05 03:02:00,
2013-07-04 19:11:00,62.0,38.0,29.30,WSW,241,0.0,7.0,41,0.00,,,0.00,,2013-07-05 03:11:00,
2013-07-04 19:33:00,62.0,38.0,29.30,WSW,241,0.0,7.0,41,0.00,,,0.00,,2013-07-05 03:33:00,
2013-07-04 19:42:00,62.0,38.0,29.30,WSW,241,0.0,7.0,41,0.00,,,0.00,,2013-07-05 03:42:00,
2013-07-04 19:52:00,62.0,38.0,29.30,WSW,241,0.0,7.0,41,0.00,,,0.00,,2013-07-05 03:52:00,
2013-07-04 20:01:00,62.0,38.0,29.30,WSW,241,0.0,7.0,41,0.00,,,0.00,,2013-07-05 04:01:00,
2013-07-04 20:22:00,61.0,40.0,29.31,West,263,0.0,7.0,45,0.00,,,0.00,,2013-07-05 04:22:00,
2013-07-04 20:33:00,61.0,40.0,29.31,West,263,0.0,7.0,45,0.00,,,0.00,,2013-07-05 04:33:00,
2013-07-04 20:43:00,61.0,40.0,29.31,West,263,0.0,7.0,45,0.00,,,0.00,,2013-07-05 04:43:00,
2013-07-04 20:53:00,61.0,40.0,29.31,West,263,0.0,7.0,45,0.00,,,0.00,,2013-07-05 04:53:00,
2013-07-04 21:01:00,60.0,39.0,29.32,South,169,0.0,7.0,46,0.00,,,0.00,,2013-07-05 05:01:00,
2013-07-04 21:12:00,60.0,39.0,29.32,South,169,0.0,7.0,46,0.00,,,0.00,,2013-07-05 05:12:00,
2013-07-04 21:21:00,60.0,40.0,29.32,WSW,244,0.0,7.0,48,0.00,,,0.00,,2013-07-05 05:21:00,
2013-07-04 21:33:00,59.0,43.0,29.33,WSW,247,0.0,7.0,55,0.00,,,0.00,,2013-07-05 05:33:00,
2013-07-04 21:43:00,59.0,43.0,29.33,WSW,247,0.0,7.0,55,0.00,,,0.00,,2013-07-05 05:43:00,
2013-07-04 21:52:00,59.0,43.0,29.34,WSW,247,0.0,7.0,55,0.00,,,0.00,,2013-07-05 05:52:00,
2013-07-04 22:01:00,58.0,42.0,29.34,West,267,0.0,7.0,56,0.00,,,0.00,,2013-07-05 06:01:00,
2013-07-04 22:12:00,58.0,42.0,29.34,West,267,0.0,7.0,56,0.00,,,0.00,,2013-07-05 06:12:00,
2013-07-04 22:23:00,58.0,43.0,29.34,West,267,0.0,7.0,57,0.00,,,0.00,,2013-07-05 06:23:00,
2013-07-04 22:34:00,57.0,42.0,29.35,West,267,0.0,7.0,57,0.00,,,0.00,,2013-07-05 06:34:00,
2013-07-04 22:43:00,57.0,42.0,29.35,West,267,0.0,7.0,57,0.00,,,0.00,,2013-07-05 06:43:00,
2013-07-04 22:53:00,56.0,41.0,29.36,West,267,0.0,7.0,58,0.00,,,0.00,,2013-07-05 06:53:00,
2013-07-04 23:02:00,56.0,42.0,29.36,West,267,0.0,7.0,59,0.00,,,0.00,,2013-07-05 07:02:00,
2013-07-04 23:12:00,56.0,42.0,29.36,West,267,0.0,7.0,59,0.00,,,0.00,,2013-07-05 07:12:00,
2013-07-04 23:23:00,55.0,42.0,29.37,West,267,0.0,7.0,61,0.00,,,0.00,,2013-07-05 07:23:00,
2013-07-04 23:33:00,54.0,41.0,29.37,West,267,0.0,7.0,61,0.00,,,0.00,,2013-07-05 07:33:00,
2013-07-04 23:43:00,54.0,41.0,29.37,West,267,0.0,7.0,61,0.00,,,0.00,,2013-07-05 07:43:00,
2013-07-04 23:53:00,54.0,42.0,29.38,West,267,0.0,7.0,63,0.00,,,0.00,,2013-07-05 07:53:00,